createdAt,value
2017-12-10T06:01:05.434Z,986.7
2017-12-10T06:02:07.031Z,986.7
2017-12-10T06:03:58.721Z,986.5
2017-12-10T06:05:00.317Z,986.7
2017-12-10T06:06:51.991Z,986.5
2017-12-10T06:07:53.585Z,986.5
2017-12-10T06:09:45.287Z,986.4
2017-12-10T06:10:46.885Z,986.5
2017-12-10T06:12:38.559Z,986.4
2017-12-10T06:13:40.154Z,986.4
2017-12-10T06:15:31.846Z,986.3
2017-12-10T06:16:33.436Z,986.2
2017-12-10T06:18:25.113Z,986.1
2017-12-10T06:19:26.707Z,986.0
2017-12-10T06:21:18.407Z,986.0
2017-12-10T06:22:19.999Z,986.1
2017-12-10T06:24:11.667Z,985.9
2017-12-10T06:25:13.269Z,985.9
2017-12-10T06:27:04.964Z,985.9
2017-12-10T06:28:06.565Z,985.9
2017-12-10T06:29:58.236Z,985.8
2017-12-10T06:30:59.834Z,985.7
2017-12-10T06:32:51.533Z,985.6
2017-12-10T06:33:53.130Z,985.7
2017-12-10T06:35:44.801Z,985.6
2017-12-10T06:36:46.400Z,985.6
2017-12-10T06:38:38.096Z,985.6
2017-12-10T06:39:39.687Z,985.6
2017-12-10T06:41:31.360Z,985.5
2017-12-10T06:42:32.956Z,985.5
2017-12-10T06:44:24.645Z,985.4
2017-12-10T06:45:26.241Z,985.4
2017-12-10T06:47:17.908Z,985.3
2017-12-10T06:48:19.508Z,985.4
2017-12-10T06:50:11.220Z,985.2
2017-12-10T06:51:12.821Z,985.2
2017-12-10T06:53:04.479Z,985.2
2017-12-10T06:54:06.081Z,985.2
2017-12-10T06:55:57.779Z,985.1
2017-12-10T06:56:59.376Z,985.2
2017-12-10T06:58:51.045Z,985.0
2017-12-10T06:59:52.647Z,985.1
2017-12-10T07:01:44.332Z,985.1
2017-12-10T07:02:45.926Z,985.2
2017-12-10T07:04:38.451Z,985.0
2017-12-10T07:05:40.052Z,985.1
2017-12-10T07:07:31.746Z,985.0
2017-12-10T07:08:33.339Z,985.0
2017-12-10T07:10:25.013Z,984.9
2017-12-10T07:11:26.608Z,984.9
2017-12-10T07:13:18.302Z,984.7
2017-12-10T07:14:19.900Z,984.7
2017-12-10T07:16:11.576Z,984.6
2017-12-10T07:17:13.172Z,984.6
2017-12-10T07:19:04.868Z,984.5
2017-12-10T07:20:06.464Z,984.5
2017-12-10T07:21:58.142Z,984.4
2017-12-10T07:22:59.738Z,984.3
2017-12-10T07:24:51.442Z,984.3
2017-12-10T07:25:53.039Z,984.1
2017-12-10T07:27:44.714Z,984.0
2017-12-10T07:28:46.312Z,984.1
2017-12-10T07:30:38.021Z,983.9
2017-12-10T07:31:39.616Z,983.8
2017-12-10T07:33:31.290Z,983.7
2017-12-10T07:34:32.891Z,983.7
2017-12-10T07:36:24.581Z,983.7
2017-12-10T07:37:26.178Z,983.5
2017-12-10T07:39:17.852Z,983.6
2017-12-10T07:40:19.457Z,983.4
2017-12-10T07:42:11.161Z,983.3
2017-12-10T07:43:12.754Z,983.2
2017-12-10T07:45:04.424Z,983.2
2017-12-10T07:46:06.029Z,983.2
2017-12-10T07:47:57.718Z,983.2
2017-12-10T07:48:59.315Z,983.1
2017-12-10T07:50:51.001Z,983.0
2017-12-10T07:51:52.598Z,982.9
2017-12-10T07:53:44.288Z,982.9
2017-12-10T07:54:45.886Z,982.8
2017-12-10T07:56:37.560Z,982.8
2017-12-10T07:57:39.160Z,982.7
2017-12-10T07:59:30.859Z,982.7
2017-12-10T08:00:32.451Z,982.6
2017-12-10T08:02:24.123Z,982.7
2017-12-10T08:03:25.727Z,982.5
2017-12-10T08:05:17.417Z,982.5
2017-12-10T08:06:19.020Z,982.4
2017-12-10T08:08:10.719Z,982.4
2017-12-10T08:09:12.321Z,982.3
2017-12-10T08:11:04.020Z,982.3
2017-12-10T08:12:05.621Z,982.2
2017-12-10T08:13:57.334Z,982.1
2017-12-10T08:14:58.931Z,982.1
2017-12-10T08:16:50.609Z,982.0
2017-12-10T08:17:52.214Z,982.0
2017-12-10T08:19:43.926Z,982.1
2017-12-10T08:20:45.528Z,981.9
2017-12-10T08:22:37.211Z,981.7
2017-12-10T08:23:39.774Z,981.7
2017-12-10T08:25:31.468Z,981.7
2017-12-10T08:33:43.296Z,981.6
2017-12-10T08:34:44.896Z,981.5
2017-12-10T08:36:36.597Z,981.5
2017-12-10T08:37:38.202Z,981.5
2017-12-10T08:39:29.880Z,981.3
2017-12-10T08:40:31.483Z,981.3
2017-12-10T08:42:23.191Z,981.2
2017-12-10T08:43:24.798Z,981.2
2017-12-10T08:45:16.486Z,981.1
2017-12-10T08:46:18.083Z,981.0
2017-12-10T08:48:09.782Z,980.9
2017-12-10T09:14:25.133Z,979.6
2017-12-10T09:15:26.734Z,979.5
2017-12-10T09:17:18.431Z,979.5
2017-12-10T09:18:20.031Z,979.4
2017-12-10T09:20:11.716Z,979.3
2017-12-10T09:21:13.319Z,979.2
2017-12-10T09:23:05.013Z,979.1
2017-12-10T09:24:06.613Z,979.1
2017-12-10T09:25:58.308Z,979.0
2017-12-10T09:26:59.910Z,978.9
2017-12-10T09:28:51.647Z,978.9
2017-12-10T09:29:53.191Z,978.8
2017-12-10T09:31:44.900Z,978.8
2017-12-10T09:32:46.495Z,978.7
2017-12-10T09:34:38.179Z,978.7
2017-12-10T09:35:39.780Z,978.7
2017-12-10T09:37:31.480Z,978.7
2017-12-10T09:38:33.080Z,978.6
2017-12-10T09:40:24.759Z,978.5
2017-12-10T09:41:26.368Z,978.5
2017-12-10T09:42:27.967Z,978.5
2017-12-10T09:43:29.575Z,978.5
2017-12-10T09:44:31.180Z,978.4
2017-12-10T09:45:32.780Z,978.3
2017-12-10T09:46:34.390Z,978.2
2017-12-10T09:47:35.991Z,978.1
2017-12-10T09:48:37.595Z,978.1
2017-12-10T09:49:39.201Z,978.1
2017-12-10T09:50:40.808Z,978.0
2017-12-10T09:51:42.409Z,978.0
2017-12-10T09:52:44.012Z,977.9
2017-12-10T09:53:45.620Z,977.9
2017-12-10T09:54:47.224Z,977.9
2017-12-10T09:55:48.825Z,977.8
2017-12-10T09:56:50.429Z,977.7
2017-12-10T09:57:52.038Z,977.7
2017-12-10T09:58:53.641Z,977.6
2017-12-10T09:59:55.243Z,977.5
2017-12-10T10:00:56.846Z,977.5
2017-12-10T10:01:58.456Z,977.5
2017-12-10T10:03:00.057Z,977.4
2017-12-10T10:04:01.664Z,977.4
2017-12-10T10:05:03.292Z,977.4
2017-12-10T10:06:04.897Z,977.4
2017-12-10T10:07:06.500Z,977.3
2017-12-10T10:08:08.110Z,977.2
2017-12-10T10:09:09.717Z,977.3
2017-12-10T10:10:11.316Z,977.2
2017-12-10T10:11:12.915Z,977.1
2017-12-10T10:12:14.525Z,977.1
2017-12-10T10:13:16.129Z,977.0
2017-12-10T10:14:17.732Z,977.0
2017-12-10T10:15:19.337Z,976.9
2017-12-10T10:16:20.946Z,976.9
2017-12-10T10:17:22.552Z,976.9
2017-12-10T10:18:24.159Z,976.8
2017-12-10T10:19:25.759Z,976.8
2017-12-10T10:20:27.368Z,976.7
2017-12-10T10:21:28.967Z,976.6
2017-12-10T10:22:30.578Z,976.6
2017-12-10T10:23:32.180Z,976.6
2017-12-10T10:24:33.788Z,976.5
2017-12-10T10:25:35.392Z,976.4
2017-12-10T10:26:36.991Z,976.6
2017-12-10T10:27:38.599Z,976.3
2017-12-10T10:28:40.199Z,976.3
2017-12-10T10:29:41.810Z,976.2
2017-12-10T10:30:43.413Z,976.3
2017-12-10T10:31:45.021Z,976.2
2017-12-10T10:32:46.620Z,976.1
2017-12-10T10:33:48.228Z,976.0
2017-12-10T10:34:49.827Z,976.0
2017-12-10T10:35:51.429Z,975.9
2017-12-10T10:36:53.038Z,975.8
2017-12-10T10:37:54.643Z,975.7
2017-12-10T10:38:56.245Z,975.7
2017-12-10T10:39:57.849Z,975.8
2017-12-10T10:40:59.458Z,975.4
2017-12-10T10:42:01.059Z,975.4
2017-12-10T10:43:02.669Z,975.3
2017-12-10T10:44:04.271Z,975.2
2017-12-10T10:45:05.877Z,975.2
2017-12-10T10:46:07.484Z,975.0
2017-12-10T10:47:09.081Z,975.0
2017-12-10T10:48:10.682Z,975.0
2017-12-10T10:49:12.286Z,974.9
2017-12-10T10:50:13.890Z,974.8
2017-12-10T10:51:15.492Z,974.7
2017-12-10T10:52:17.096Z,974.6
2017-12-10T10:53:18.710Z,974.5
2017-12-10T10:54:20.316Z,974.4
2017-12-10T10:55:21.914Z,974.3
2017-12-10T10:56:23.514Z,974.2
2017-12-10T10:57:25.120Z,974.1
2017-12-10T10:58:26.721Z,974.0
2017-12-10T10:59:28.328Z,973.9
2017-12-10T11:00:29.930Z,973.8
2017-12-10T11:01:31.564Z,973.7
2017-12-10T11:02:33.176Z,973.8
2017-12-10T11:03:34.783Z,973.6
2017-12-10T11:04:36.388Z,973.5
2017-12-10T11:05:37.997Z,973.4
2017-12-10T11:06:39.605Z,973.3
2017-12-10T11:07:41.208Z,973.2
2017-12-10T11:08:42.826Z,973.2
2017-12-10T11:09:44.432Z,973.2
2017-12-10T11:10:46.086Z,973.2
2017-12-10T11:11:47.784Z,973.1
2017-12-10T11:12:49.381Z,973.0
2017-12-10T11:13:50.985Z,972.9
2017-12-10T11:14:52.644Z,972.8
2017-12-10T11:15:54.245Z,972.8
2017-12-10T11:16:55.848Z,972.7
2017-12-10T11:17:57.497Z,972.6
2017-12-10T11:18:59.099Z,972.7
2017-12-10T11:20:00.701Z,972.7
2017-12-10T11:21:02.298Z,972.6
2017-12-10T11:22:03.941Z,972.6
2017-12-10T11:23:05.544Z,972.6
2017-12-10T11:24:07.172Z,972.6
2017-12-10T11:25:08.770Z,972.6
2017-12-10T11:26:10.372Z,972.6
2017-12-10T11:27:11.984Z,972.5
2017-12-10T11:28:13.582Z,972.4
2017-12-10T11:29:16.503Z,972.4
2017-12-10T11:30:18.095Z,972.3
2017-12-10T11:31:19.701Z,972.2
2017-12-10T11:32:21.421Z,972.1
2017-12-10T11:33:23.003Z,972.0
2017-12-10T11:34:24.605Z,972.1
2017-12-10T11:35:26.214Z,972.0
2017-12-10T11:36:27.814Z,972.0
2017-12-10T11:37:29.415Z,972.0
2017-12-10T11:38:31.012Z,971.9
2017-12-10T11:39:32.618Z,971.9
2017-12-10T11:40:34.217Z,971.8
2017-12-10T11:41:35.826Z,971.7
2017-12-10T11:42:37.429Z,971.6
2017-12-10T11:44:27.226Z,971.6
2017-12-10T11:45:29.888Z,971.4
2017-12-10T11:47:22.372Z,971.4
2017-12-10T11:48:23.978Z,971.2
2017-12-10T11:50:15.666Z,971.1
2017-12-10T11:51:17.280Z,971.0
2017-12-10T11:53:08.954Z,971.1
2017-12-10T11:54:10.554Z,971.1
2017-12-10T11:56:03.703Z,970.9
2017-12-10T11:57:05.266Z,970.9
2017-12-10T11:58:57.707Z,970.9
2017-12-10T11:59:59.269Z,971.0
2017-12-10T12:01:00.874Z,970.9
2017-12-10T12:02:02.470Z,970.9
2017-12-10T12:03:04.069Z,970.8
2017-12-10T12:04:05.681Z,970.8
2017-12-10T12:05:10.193Z,970.8
2017-12-10T12:06:11.796Z,970.8
2017-12-10T12:07:13.398Z,970.8
2017-12-10T12:08:14.998Z,970.8
2017-12-10T12:09:16.596Z,970.7
2017-12-10T12:10:18.218Z,970.8
2017-12-10T12:11:19.815Z,970.6
2017-12-10T12:12:21.422Z,970.6
2017-12-10T12:13:23.022Z,970.6
2017-12-10T12:14:24.627Z,970.5
2017-12-10T12:15:26.222Z,970.4
2017-12-10T12:16:27.871Z,970.4
2017-12-10T12:17:29.620Z,970.4
2017-12-10T12:18:31.225Z,970.3
2017-12-10T12:19:32.845Z,970.2
2017-12-10T12:20:34.443Z,970.3
2017-12-10T12:21:36.049Z,970.2
2017-12-10T12:22:37.651Z,970.3
2017-12-10T12:23:39.260Z,970.2
2017-12-10T12:24:40.859Z,970.2
2017-12-10T12:25:44.776Z,970.2
2017-12-10T12:26:46.341Z,970.1
2017-12-10T12:27:47.945Z,970.1
2017-12-10T12:28:49.540Z,970.2
2017-12-10T12:29:51.138Z,970.1
2017-12-10T12:30:52.741Z,970.1
2017-12-10T12:31:54.346Z,970.0
2017-12-10T12:32:55.946Z,970.4
2017-12-10T12:33:57.550Z,970.0
2017-12-10T12:34:59.152Z,969.9
2017-12-10T12:36:00.749Z,969.9
2017-12-10T12:37:02.344Z,970.1
2017-12-10T12:38:03.949Z,969.8
2017-12-10T12:39:05.547Z,969.8
2017-12-10T12:40:07.236Z,969.8
2017-12-10T12:41:08.836Z,969.8
2017-12-10T12:42:10.442Z,969.8
2017-12-10T12:43:12.038Z,969.7
2017-12-10T12:44:13.643Z,969.6
2017-12-10T12:45:15.238Z,969.7
2017-12-10T12:46:16.849Z,969.7
2017-12-10T12:47:18.441Z,969.7
2017-12-10T12:48:20.045Z,969.8
2017-12-10T12:49:21.644Z,969.5
2017-12-10T12:50:23.242Z,969.4
2017-12-10T12:51:27.965Z,969.5
2017-12-10T12:52:30.118Z,969.4
2017-12-10T12:53:31.712Z,969.4
2017-12-10T12:54:34.187Z,969.2
2017-12-10T12:55:36.056Z,969.2
2017-12-10T12:56:38.311Z,969.1
2017-12-10T12:57:39.930Z,969.0
2017-12-10T12:58:41.541Z,969.1
2017-12-10T12:59:43.146Z,969.0
2017-12-10T13:00:44.923Z,968.9
2017-12-10T13:01:46.490Z,968.8
2017-12-10T13:02:48.092Z,968.7
2017-12-10T13:03:49.695Z,968.7
2017-12-10T13:04:51.308Z,968.8
2017-12-10T13:05:52.902Z,968.7
2017-12-10T13:06:54.497Z,968.6
2017-12-10T13:07:56.114Z,968.6
2017-12-10T13:08:57.716Z,968.6
2017-12-10T13:09:59.313Z,968.6
2017-12-10T13:11:00.948Z,968.4
2017-12-10T13:12:02.515Z,968.4
2017-12-10T13:13:04.120Z,968.3
2017-12-10T13:14:05.718Z,968.3
2017-12-10T13:15:07.315Z,968.2
2017-12-10T13:16:08.915Z,968.2
2017-12-10T13:17:10.515Z,968.1
2017-12-10T13:18:12.112Z,968.0
2017-12-10T13:19:13.712Z,968.0
2017-12-10T13:20:15.313Z,968.1
2017-12-10T13:21:16.914Z,968.0
2017-12-10T13:22:18.512Z,967.9
2017-12-10T13:23:20.113Z,967.8
2017-12-10T13:24:21.717Z,967.9
2017-12-10T13:25:23.314Z,967.7
2017-12-10T13:26:24.915Z,967.9
2017-12-10T13:27:26.513Z,968.2
2017-12-10T13:28:28.113Z,968.2
2017-12-10T13:29:29.709Z,968.2
2017-12-10T13:30:31.309Z,968.2
2017-12-10T13:31:32.904Z,968.1
2017-12-10T13:32:34.508Z,967.9
2017-12-10T13:33:36.102Z,967.7
2017-12-10T13:34:37.706Z,967.4
2017-12-10T13:35:39.300Z,967.3
2017-12-10T13:36:40.904Z,967.5
2017-12-10T13:37:42.501Z,967.3
2017-12-10T13:38:44.108Z,967.2
2017-12-10T13:39:45.707Z,967.2
2017-12-10T13:40:47.308Z,967.2
2017-12-10T13:41:48.905Z,967.2
2017-12-10T13:42:50.509Z,967.2
2017-12-10T13:43:52.107Z,967.1
2017-12-10T13:44:53.709Z,967.1
2017-12-10T13:45:55.309Z,967.0
2017-12-10T13:46:56.931Z,967.1
2017-12-10T13:47:58.515Z,966.9
2017-12-10T13:49:00.108Z,966.8
2017-12-10T13:50:01.713Z,966.8
2017-12-10T13:51:03.308Z,966.7
2017-12-10T13:52:04.911Z,966.7
2017-12-10T13:53:06.509Z,966.6
2017-12-10T13:54:08.115Z,966.6
2017-12-10T13:55:09.708Z,966.7
2017-12-10T13:56:11.313Z,967.0
2017-12-10T13:57:12.908Z,966.9
2017-12-10T13:58:14.524Z,966.8
2017-12-10T13:59:16.125Z,967.0
2017-12-10T14:00:17.732Z,966.6
2017-12-10T14:01:19.335Z,966.5
2017-12-10T14:02:20.935Z,966.5
2017-12-10T14:03:22.535Z,966.7
2017-12-10T14:04:24.132Z,966.6
2017-12-10T14:05:25.739Z,966.5
2017-12-10T14:06:27.341Z,966.6
2017-12-10T14:07:28.941Z,966.3
2017-12-10T14:08:30.542Z,966.4
2017-12-10T14:09:32.144Z,966.4
2017-12-10T14:10:33.744Z,966.4
2017-12-10T14:11:35.342Z,966.3
2017-12-10T14:12:36.943Z,966.2
2017-12-10T14:13:38.538Z,966.2
2017-12-10T14:14:40.137Z,966.4
2017-12-10T14:15:41.742Z,966.1
2017-12-10T14:16:43.338Z,965.8
2017-12-10T14:17:44.935Z,966.0
2017-12-10T14:18:46.532Z,966.1
2017-12-10T14:19:48.134Z,966.0
2017-12-10T14:20:49.739Z,965.9
2017-12-10T14:21:51.343Z,966.0
2017-12-10T14:22:52.947Z,966.0
2017-12-10T14:23:54.544Z,966.0
2017-12-10T14:24:56.135Z,966.1
2017-12-10T14:25:57.742Z,966.0
2017-12-10T14:26:59.345Z,966.1
2017-12-10T14:28:00.943Z,966.0
2017-12-10T14:29:02.543Z,965.8
2017-12-10T14:30:04.146Z,965.8
2017-12-10T14:31:05.748Z,965.7
2017-12-10T14:32:07.342Z,965.6
2017-12-10T14:33:08.939Z,965.7
2017-12-10T14:34:10.544Z,965.7
2017-12-10T14:35:12.151Z,965.6
2017-12-10T14:36:13.750Z,965.4
2017-12-10T14:37:15.350Z,965.6
2017-12-10T14:38:16.952Z,965.7
2017-12-10T14:39:18.558Z,965.5
2017-12-10T14:40:20.152Z,965.5
2017-12-10T14:41:21.748Z,965.5
2017-12-10T14:42:23.355Z,965.5
2017-12-10T14:43:24.947Z,965.5
2017-12-10T14:44:26.551Z,965.4
2017-12-10T14:45:28.147Z,965.5
2017-12-10T14:46:29.752Z,965.3
2017-12-10T14:47:31.345Z,965.4
2017-12-10T14:48:32.951Z,965.3
2017-12-10T14:49:34.546Z,965.5
2017-12-10T14:50:36.151Z,965.3
2017-12-10T14:51:37.751Z,965.5
2017-12-10T14:52:39.352Z,965.4
2017-12-10T14:53:40.954Z,965.4
2017-12-10T14:54:42.557Z,965.3
2017-12-10T14:55:44.158Z,965.2
2017-12-10T14:56:45.760Z,965.3
2017-12-10T14:57:47.359Z,965.2
2017-12-10T14:58:48.965Z,965.2
2017-12-10T14:59:50.566Z,965.3
2017-12-10T15:00:52.165Z,965.2
2017-12-10T15:01:53.759Z,965.3
2017-12-10T15:02:55.362Z,965.1
2017-12-10T15:03:56.964Z,965.1
2017-12-10T15:04:58.561Z,965.2
2017-12-10T15:06:00.161Z,965.0
2017-12-10T15:07:01.761Z,965.1
2017-12-10T15:08:03.360Z,965.2
2017-12-10T15:09:04.967Z,965.0
2017-12-10T15:10:06.570Z,965.2
2017-12-10T15:11:08.170Z,965.1
2017-12-10T15:12:09.766Z,965.0
2017-12-10T15:13:11.362Z,965.0
2017-12-10T15:14:12.960Z,965.2
2017-12-10T15:15:14.564Z,965.1
2017-12-10T15:16:16.157Z,965.0
2017-12-10T15:17:17.758Z,965.2
2017-12-10T15:18:19.353Z,965.1
2017-12-10T15:19:20.956Z,965.0
2017-12-10T15:20:22.559Z,965.2
2017-12-10T15:21:24.153Z,965.1
2017-12-10T15:22:25.749Z,965.2
2017-12-10T15:23:27.895Z,965.3
2017-12-10T15:24:29.495Z,965.2
2017-12-10T15:25:31.135Z,965.3
2017-12-10T15:26:32.696Z,965.2
2017-12-10T15:27:34.292Z,965.2
2017-12-10T15:28:35.892Z,965.3
2017-12-10T15:29:37.487Z,965.2
2017-12-10T15:30:39.085Z,965.2
2017-12-10T15:31:40.686Z,965.3
2017-12-10T15:32:42.279Z,965.2
2017-12-10T15:33:43.892Z,965.3
2017-12-10T15:34:45.488Z,965.2
2017-12-10T15:35:47.080Z,965.1
2017-12-10T15:36:48.681Z,965.2
2017-12-10T15:37:50.279Z,965.2
2017-12-10T15:38:51.879Z,965.3
2017-12-10T15:39:53.474Z,965.2
2017-12-10T15:40:55.078Z,965.1
2017-12-10T15:41:56.673Z,965.2
2017-12-10T15:42:58.270Z,965.2
2017-12-10T15:43:59.875Z,965.1
2017-12-10T15:45:01.470Z,965.2
2017-12-10T15:46:03.066Z,965.1
2017-12-10T15:47:04.663Z,965.0
2017-12-10T15:48:06.262Z,965.0
2017-12-10T15:49:07.862Z,965.1
2017-12-10T15:50:09.459Z,965.0
2017-12-10T15:51:11.057Z,965.0
2017-12-10T15:52:12.650Z,965.1
2017-12-10T15:53:14.252Z,965.0
2017-12-10T15:54:15.848Z,965.0
2017-12-10T15:55:17.452Z,965.1
2017-12-10T15:56:19.053Z,965.0
2017-12-10T15:57:20.649Z,965.0
2017-12-10T15:58:22.243Z,964.8
2017-12-10T15:59:23.843Z,965.1
2017-12-10T16:00:25.444Z,964.8
2017-12-10T16:01:27.042Z,964.8
2017-12-10T16:02:28.647Z,964.8
2017-12-10T16:03:30.244Z,964.9
2017-12-10T16:04:31.851Z,964.7
2017-12-10T16:05:33.441Z,964.6
2017-12-10T16:06:35.038Z,964.7
2017-12-10T16:07:36.638Z,964.6
2017-12-10T16:08:38.238Z,964.7
2017-12-10T16:09:39.836Z,964.8
2017-12-10T16:10:41.446Z,964.7
2017-12-10T16:11:43.042Z,964.8
2017-12-10T16:12:44.643Z,964.8
2017-12-10T16:13:46.239Z,964.7
2017-12-10T16:14:47.840Z,964.8
2017-12-10T16:15:49.439Z,964.6
2017-12-10T16:16:51.048Z,964.6
2017-12-10T16:17:52.641Z,964.6
2017-12-10T16:18:54.236Z,964.7
2017-12-10T16:19:55.833Z,964.6
2017-12-10T16:20:57.437Z,964.6
2017-12-10T16:21:59.033Z,964.7
2017-12-10T16:23:00.641Z,964.6
2017-12-10T16:24:02.251Z,964.6
2017-12-10T16:25:03.851Z,964.5
2017-12-10T16:26:05.443Z,964.6
2017-12-10T16:27:07.044Z,964.5
2017-12-10T16:28:08.646Z,964.6
2017-12-10T16:29:10.241Z,964.6
2017-12-10T16:30:11.837Z,964.6
2017-12-10T16:31:13.442Z,964.8
2017-12-10T16:32:15.044Z,964.7
2017-12-10T16:33:16.641Z,964.5
2017-12-10T16:34:18.239Z,964.7
2017-12-10T16:35:19.836Z,964.6
2017-12-10T16:36:21.434Z,964.6
2017-12-10T16:37:23.037Z,964.5
2017-12-10T16:38:24.632Z,964.5
2017-12-10T16:39:26.237Z,964.5
2017-12-10T16:40:27.831Z,964.6
2017-12-10T16:41:29.443Z,964.5
2017-12-10T16:42:31.043Z,964.5
2017-12-10T16:43:32.642Z,964.5
2017-12-10T16:44:34.241Z,964.7
2017-12-10T16:45:35.842Z,964.5
2017-12-10T16:46:37.442Z,964.5
2017-12-10T16:47:39.036Z,964.5
2017-12-10T16:48:40.634Z,964.4
2017-12-10T16:49:42.234Z,964.3
2017-12-10T16:50:43.833Z,964.3
2017-12-10T16:51:45.433Z,964.4
2017-12-10T16:52:47.027Z,964.4
2017-12-10T16:53:48.625Z,964.4
2017-12-10T16:54:50.222Z,964.5
2017-12-10T16:55:51.825Z,964.5
2017-12-10T16:56:53.425Z,964.4
2017-12-10T16:57:55.021Z,964.4
2017-12-10T16:58:56.618Z,964.3
2017-12-10T16:59:58.227Z,964.3
2017-12-10T17:00:59.828Z,964.3
2017-12-10T17:02:01.423Z,964.4
2017-12-10T17:03:03.022Z,964.4
2017-12-10T17:04:04.624Z,964.3
2017-12-10T17:05:06.219Z,964.3
2017-12-10T17:06:07.821Z,964.3
2017-12-10T17:07:09.421Z,964.2
2017-12-10T17:08:11.020Z,964.3
2017-12-10T17:09:12.617Z,964.4
2017-12-10T17:10:14.224Z,964.4
2017-12-10T17:11:15.824Z,964.4
2017-12-10T17:12:17.421Z,964.4
2017-12-10T17:13:19.019Z,964.3
2017-12-10T17:14:20.623Z,964.3
2017-12-10T17:15:22.224Z,964.2
2017-12-10T17:16:23.816Z,964.3
2017-12-10T17:17:25.418Z,964.1
2017-12-10T17:18:27.017Z,964.2
2017-12-10T17:19:28.618Z,964.3
2017-12-10T17:20:30.213Z,964.2
2017-12-10T17:21:31.820Z,964.2
2017-12-10T17:22:33.417Z,964.1
2017-12-10T17:23:35.011Z,964.2
2017-12-10T17:24:36.613Z,964.2
2017-12-10T17:25:38.209Z,964.2
2017-12-10T17:26:39.814Z,964.2
2017-12-10T17:27:41.408Z,964.1
2017-12-10T17:28:43.018Z,964.2
2017-12-10T17:29:44.614Z,964.2
2017-12-10T17:30:46.213Z,964.1
2017-12-10T17:31:47.809Z,964.2
2017-12-10T17:32:49.418Z,964.1
2017-12-10T17:33:51.011Z,964.1
2017-12-10T17:34:52.612Z,964.2
2017-12-10T17:35:54.211Z,964.1
2017-12-10T17:36:55.816Z,964.0
2017-12-10T17:37:57.415Z,963.9
2017-12-10T17:38:59.012Z,963.9
2017-12-10T17:40:00.612Z,963.9
2017-12-10T17:41:02.214Z,964.0
2017-12-10T17:42:03.816Z,963.9
2017-12-10T17:43:05.415Z,964.0
2017-12-10T17:44:07.020Z,964.0
2017-12-10T17:45:08.647Z,963.9
2017-12-10T17:46:10.215Z,964.0
2017-12-10T17:47:11.811Z,963.9
2017-12-10T17:48:13.415Z,963.9
2017-12-10T17:49:15.015Z,963.9
2017-12-10T17:50:16.620Z,963.9
2017-12-10T17:51:18.219Z,963.8
2017-12-10T17:52:19.821Z,963.8
2017-12-10T17:53:21.417Z,963.7
2017-12-10T17:54:23.015Z,963.8
2017-12-10T17:55:24.621Z,963.8
2017-12-10T17:56:26.225Z,963.6
2017-12-10T17:57:27.824Z,963.7
2017-12-10T17:58:29.428Z,963.8
2017-12-10T17:59:31.033Z,963.6
2017-12-10T18:00:32.632Z,963.4
2017-12-10T18:01:34.230Z,963.6
2017-12-10T18:02:35.831Z,963.7
2017-12-10T18:03:37.438Z,963.9
2017-12-10T18:04:39.043Z,963.7
2017-12-10T18:05:40.641Z,963.7
2017-12-10T18:06:42.241Z,963.7
2017-12-10T18:07:43.843Z,963.6
2017-12-10T18:08:45.446Z,963.8
2017-12-10T18:09:47.043Z,963.9
2017-12-10T18:10:48.641Z,964.0
2017-12-10T18:11:50.250Z,963.7
2017-12-10T18:12:51.854Z,963.7
2017-12-10T18:13:53.452Z,963.8
2017-12-10T18:14:55.053Z,963.7
2017-12-10T18:15:56.658Z,964.0
2017-12-10T18:16:58.260Z,963.9
2017-12-10T18:17:59.858Z,963.7
2017-12-10T18:19:01.459Z,963.7
2017-12-10T18:20:03.062Z,963.8
2017-12-10T18:21:04.658Z,963.8
2017-12-10T18:22:06.263Z,963.6
2017-12-10T18:23:07.861Z,964.3
2017-12-10T18:24:09.463Z,964.0
2017-12-10T18:25:11.067Z,963.8
2017-12-10T18:26:12.675Z,963.7
2017-12-10T18:27:14.271Z,963.8
2017-12-10T18:28:15.877Z,963.9
2017-12-10T18:29:17.476Z,963.8
2017-12-10T18:30:19.082Z,963.9
2017-12-10T18:31:20.680Z,963.9
2017-12-10T18:32:22.282Z,964.0
2017-12-10T18:33:23.882Z,963.8
2017-12-10T18:34:25.490Z,964.0
2017-12-10T18:35:27.089Z,964.0
2017-12-10T18:36:28.688Z,964.1
2017-12-10T18:37:30.294Z,964.3
2017-12-10T18:38:31.892Z,964.1
2017-12-10T18:39:33.499Z,964.3
2017-12-10T18:40:35.099Z,964.1
2017-12-10T18:41:36.707Z,964.2
2017-12-10T18:42:38.303Z,964.1
2017-12-10T18:43:39.908Z,964.2
2017-12-10T18:44:41.504Z,964.1
2017-12-10T18:45:43.109Z,964.0
2017-12-10T18:46:44.708Z,964.0
2017-12-10T18:47:46.313Z,964.4
2017-12-10T18:48:47.917Z,964.2
2017-12-10T18:49:49.516Z,964.1
2017-12-10T18:50:51.119Z,964.1
2017-12-10T18:51:52.725Z,964.1
2017-12-10T18:52:54.329Z,964.2
2017-12-10T18:53:55.935Z,964.1
2017-12-10T18:54:57.534Z,964.1
2017-12-10T18:55:59.138Z,964.0
2017-12-10T18:57:00.749Z,964.2
2017-12-10T18:58:02.345Z,964.1
2017-12-10T18:59:03.943Z,963.9
2017-12-10T19:00:05.547Z,964.2
2017-12-10T19:01:07.160Z,964.0
2017-12-10T19:02:08.754Z,964.2
2017-12-10T19:03:10.353Z,964.0
2017-12-10T19:04:11.952Z,964.2
2017-12-10T19:05:13.555Z,964.0
2017-12-10T19:06:15.160Z,964.3
2017-12-10T19:07:16.758Z,964.1
2017-12-10T19:08:18.367Z,964.0
2017-12-10T19:09:19.969Z,964.3
2017-12-10T19:10:21.567Z,964.1
2017-12-10T19:11:23.194Z,964.0
2017-12-10T19:12:24.790Z,964.0
2017-12-10T19:13:26.390Z,964.0
2017-12-10T19:14:27.994Z,964.0
2017-12-10T19:15:29.600Z,964.1
2017-12-10T19:16:31.207Z,964.0
2017-12-10T19:17:32.809Z,964.1
2017-12-10T19:18:34.418Z,964.3
2017-12-10T19:19:36.018Z,964.0
2017-12-10T19:20:37.621Z,964.1
2017-12-10T19:21:39.227Z,964.1
2017-12-10T19:22:40.827Z,964.0
2017-12-10T19:23:42.428Z,963.9
2017-12-10T19:25:05.107Z,964.0
2017-12-10T19:26:06.710Z,964.1
2017-12-10T19:27:08.314Z,964.1
2017-12-10T19:28:09.911Z,964.1
2017-12-10T19:29:11.513Z,964.6
2017-12-10T19:30:13.117Z,964.0
2017-12-10T19:31:14.720Z,964.1
2017-12-10T19:32:16.320Z,964.0
2017-12-10T19:33:17.919Z,963.9
2017-12-10T19:34:19.520Z,964.1
2017-12-10T19:35:21.126Z,964.2
2017-12-10T19:36:22.727Z,964.2
2017-12-10T19:37:24.335Z,964.3
2017-12-10T19:38:25.936Z,964.1
2017-12-10T19:39:27.539Z,964.2
2017-12-10T19:40:29.139Z,964.4
2017-12-10T19:41:30.742Z,964.0
2017-12-10T19:42:32.340Z,964.2
2017-12-10T19:43:33.946Z,964.4
2017-12-10T19:44:35.544Z,964.1
2017-12-10T19:45:37.153Z,964.2
2017-12-10T19:46:38.755Z,964.4
2017-12-10T19:47:40.360Z,964.3
2017-12-10T19:48:41.959Z,964.3
2017-12-10T19:49:43.565Z,964.4
2017-12-10T19:50:45.165Z,964.4
2017-12-10T19:51:46.769Z,964.4
2017-12-10T19:52:48.374Z,964.4
2017-12-10T19:53:49.979Z,964.3
2017-12-10T19:54:51.583Z,964.5
2017-12-10T19:55:53.182Z,964.5
2017-12-10T19:56:54.782Z,964.4
2017-12-10T19:57:56.383Z,964.2
2017-12-10T19:58:57.989Z,964.4
2017-12-10T19:59:59.591Z,964.3
2017-12-10T20:01:01.199Z,964.4
2017-12-10T20:02:02.797Z,964.5
2017-12-10T20:03:04.406Z,964.3
2017-12-10T20:04:05.999Z,964.2
2017-12-10T20:05:07.607Z,964.2
2017-12-10T20:06:09.210Z,964.1
2017-12-10T20:07:10.808Z,964.3
2017-12-10T20:08:12.412Z,964.4
2017-12-10T20:09:14.011Z,964.2
2017-12-10T20:10:15.618Z,964.2
2017-12-10T20:11:17.220Z,964.4
2017-12-10T20:12:18.821Z,964.4
2017-12-10T20:13:20.428Z,964.3
2017-12-10T20:14:22.032Z,964.3
2017-12-10T20:15:23.647Z,964.4
2017-12-10T20:16:25.363Z,964.2
2017-12-10T20:17:27.035Z,964.2
2017-12-10T20:18:28.635Z,964.5
2017-12-10T20:19:30.240Z,964.2
2017-12-10T20:20:31.844Z,964.3
2017-12-10T20:21:33.442Z,964.2
2017-12-10T20:22:35.051Z,964.3
2017-12-10T20:23:36.652Z,964.2
2017-12-10T20:24:38.250Z,964.3
2017-12-10T20:25:39.851Z,964.1
2017-12-10T20:26:41.450Z,964.2
2017-12-10T20:27:43.056Z,964.4
2017-12-10T20:28:44.656Z,964.4
2017-12-10T20:29:46.265Z,964.4
2017-12-10T20:30:47.864Z,964.4
2017-12-10T20:31:49.469Z,964.2
2017-12-10T20:32:51.073Z,964.5
2017-12-10T20:33:52.673Z,964.4
2017-12-10T20:34:54.278Z,964.3
2017-12-10T20:35:55.881Z,964.4
2017-12-10T20:36:57.487Z,964.6
2017-12-10T20:37:59.086Z,964.5
2017-12-10T20:39:00.687Z,964.4
2017-12-10T20:40:02.285Z,964.5
2017-12-10T20:41:03.890Z,964.6
2017-12-10T20:42:05.487Z,964.7
2017-12-10T20:43:07.100Z,964.8
2017-12-10T20:44:08.771Z,964.8
2017-12-10T20:45:10.429Z,965.2